Time;durP1;ratioP1;P1;durP2;ratioP2;P2;SDS_P1;SDS_P2;PMS_P1;PMS_P2;Temp;Humidity;BMP_temperature;BMP_pressure;BME280_temperature;BME280_humidity;BME280_pressure;Samples;Min_cycle;Max_cycle;Signal;HPM_P1;HPM_P2
2022/10/28 00:01:23;;;;;;;;;;;16.40;97.30;;;;;;4985044;28;19914;-69
2022/10/28 00:03:52;;;;;;;;;;;16.40;97.40;;;;;;4984928;28;19917;-68
2022/10/28 00:06:19;;;;;;;;;;;16.50;97.40;;;;;;4985530;28;19944;-68
2022/10/28 00:08:45;;;;;;;;;;;16.50;97.40;;;;;;4985890;28;19913;-69
2022/10/28 00:11:11;;;;;;;;;;;16.40;97.40;;;;;;4985199;28;20462;-69
2022/10/28 00:13:37;;;;;;;;;;;16.40;97.30;;;;;;4983849;28;20594;-69
2022/10/28 00:16:07;;;;;;;;;;;16.40;97.30;;;;;;4984806;28;19953;-68
2022/10/28 00:18:33;;;;;;;;;;;16.40;97.30;;;;;;4985239;28;19918;-69
2022/10/28 00:21:03;;;;;;;;;;;16.30;97.30;;;;;;4983814;28;19941;-69
2022/10/28 00:23:29;;;;;;;;;;;16.40;97.40;;;;;;4985154;28;20020;-69
2022/10/28 00:25:54;;;;;;;;;;;16.40;97.40;;;;;;4985134;28;20352;-68
2022/10/28 00:28:20;;;;;;;;;;;16.40;97.40;;;;;;4985163;28;20375;-69
2022/10/28 00:30:45;;;;;;;;;;;16.40;97.40;;;;;;4985056;28;19940;-69
2022/10/28 00:33:11;;;;;;;;;;;16.40;97.40;;;;;;4984951;28;19917;-69
2022/10/28 00:35:36;;;;;;;;;;;16.40;97.40;;;;;;4985090;28;19967;-69
2022/10/28 00:38:01;;;;;;;;;;;16.40;97.40;;;;;;4985556;28;20525;-69
2022/10/28 00:40:32;;;;;;;;;;;16.40;97.40;;;;;;4985132;28;19918;-69
2022/10/28 00:42:57;;;;;;;;;;;16.30;97.40;;;;;;4985857;28;20422;-68
2022/10/28 00:45:23;;;;;;;;;;;16.30;97.30;;;;;;4985213;28;19933;-69
2022/10/28 00:47:54;;;;;;;;;;;16.40;97.40;;;;;;4983668;28;20402;-69
2022/10/28 00:50:38;;;;;;;;;;;16.40;97.40;;;;;;4975025;28;19941;-69
2022/10/28 00:53:06;;;;;;;;;;;16.40;97.40;;;;;;4985575;28;19918;-69
2022/10/28 00:55:33;;;;;;;;;;;16.30;97.30;;;;;;4985564;28;20434;-69
2022/10/28 00:57:59;;;;;;;;;;;16.40;97.30;;;;;;4984834;28;19940;-69
2022/10/28 01:00:25;;;;;;;;;;;16.30;97.40;;;;;;4985221;28;19920;-69
2022/10/28 01:02:50;;;;;;;;;;;16.40;97.40;;;;;;4985133;28;20552;-68
2022/10/28 01:05:19;;;;;;;;;;;16.40;97.30;;;;;;4985491;28;19913;-69
2022/10/28 01:07:45;;;;;;;;;;;16.40;97.60;;;;;;4984771;28;20000;-69
2022/10/28 01:10:11;;;;;;;;;;;16.40;97.30;;;;;;4984326;28;20510;-69
2022/10/28 01:12:57;;;;;;;;;;;16.40;97.40;;;;;;4984511;28;20426;-69
2022/10/28 01:15:41;;;;;;;;;;;16.40;97.30;;;;;;4985702;28;20535;-69
2022/10/28 01:18:09;;;;;;;;;;;16.40;97.40;;;;;;4988504;28;20570;-69
2022/10/28 01:20:44;;;;;;;;;;;16.30;97.30;;;;;;4988271;28;19914;-69
2022/10/28 01:23:27;;;;;;;;;;;16.40;97.30;;;;;;4987422;28;20453;-69
2022/10/28 01:25:53;;;;;;;;;;;16.30;97.30;;;;;;4977095;28;19953;-69
2022/10/28 01:28:37;;;;;;;;;;;16.40;97.30;;;;;;4987934;28;20375;-68
2022/10/28 01:31:12;;;;;;;;;;;16.30;97.30;;;;;;4987650;28;19914;-69
2022/10/28 01:33:56;;;;;;;;;;;16.30;97.30;;;;;;4988107;28;19914;-69
2022/10/28 01:36:29;;;;;;;;;;;16.30;97.30;;;;;;4988096;28;19914;-69
2022/10/28 01:39:04;;;;;;;;;;;16.40;97.40;;;;;;4986116;28;20387;-68
2022/10/28 01:41:32;;;;;;;;;;;16.40;97.30;;;;;;4987406;28;19914;-69
2022/10/28 01:43:58;;;;;;;;;;;16.30;97.30;;;;;;4987924;28;19921;-69
2022/10/28 01:46:27;;;;;;;;;;;16.40;97.40;;;;;;4987685;28;20294;-69
2022/10/28 01:48:56;;;;;;;;;;;16.30;97.40;;;;;;4987690;28;19917;-69
2022/10/28 01:51:27;;;;;;;;;;;16.30;97.40;;;;;;4987345;28;19914;-69
2022/10/28 01:53:55;;;;;;;;;;;16.40;97.30;;;;;;4987711;28;19913;-68
2022/10/28 01:56:22;;;;;;;;;;;16.40;97.40;;;;;;4986697;28;19914;-69
2022/10/28 01:58:49;;;;;;;;;;;16.40;97.30;;;;;;4987686;28;19913;-69
2022/10/28 02:01:15;;;;;;;;;;;16.40;97.30;;;;;;4987003;28;19921;-69
2022/10/28 02:03:40;;;;;;;;;;;16.40;97.30;;;;;;4997039;28;19917;-69
2022/10/28 02:06:13;;;;;;;;;;;16.40;97.40;;;;;;5006789;28;19956;-68
2022/10/28 02:08:57;;;;;;;;;;;16.40;97.20;;;;;;5007374;28;20543;-68
2022/10/28 02:11:27;;;;;;;;;;;16.40;97.30;;;;;;4987036;28;19922;-69
2022/10/28 02:14:10;;;;;;;;;;;16.40;97.20;;;;;;4987076;28;19921;-69
2022/10/28 02:16:39;;;;;;;;;;;16.40;97.20;;;;;;4987079;28;19913;-69
2022/10/28 02:19:23;;;;;;;;;;;16.40;97.30;;;;;;4987631;28;19913;-69
2022/10/28 02:21:54;;;;;;;;;;;16.40;97.30;;;;;;4986906;28;20680;-69
2022/10/28 02:24:22;;;;;;;;;;;16.40;97.30;;;;;;4987026;28;19918;-69
2022/10/28 02:27:14;;;;;;;;;;;16.50;97.20;;;;;;4986325;28;19929;-69
2022/10/28 02:29:42;;;;;;;;;;;16.40;97.20;;;;;;4986041;28;19952;-68
2022/10/28 02:32:10;;;;;;;;;;;16.50;97.30;;;;;;4987104;28;19914;-69
2022/10/28 02:34:39;;;;;;;;;;;16.40;97.20;;;;;;4986736;28;20618;-69
2022/10/28 02:37:08;;;;;;;;;;;16.50;97.20;;;;;;4985629;28;19918;-69
2022/10/28 02:39:37;;;;;;;;;;;16.50;97.20;;;;;;4986196;28;19918;-68
2022/10/28 02:42:15;;;;;;;;;;;16.40;97.10;;;;;;4986545;28;19924;-69
2022/10/28 02:44:43;;;;;;;;;;;16.40;97.20;;;;;;4984387;28;19937;-69
2022/10/28 02:47:12;;;;;;;;;;;16.40;97.20;;;;;;4967221;28;19918;-69
2022/10/28 02:49:40;;;;;;;;;;;16.40;97.30;;;;;;4971056;28;19914;-69
2022/10/28 02:52:06;;;;;;;;;;;16.40;97.30;;;;;;4986218;28;19914;-69
2022/10/28 02:54:34;;;;;;;;;;;16.40;97.20;;;;;;4986694;28;19976;-69
2022/10/28 02:57:06;;;;;;;;;;;16.40;97.30;;;;;;4985977;28;20515;-69
2022/10/28 02:59:31;;;;;;;;;;;16.40;97.20;;;;;;4986291;28;20476;-68
2022/10/28 03:01:57;;;;;;;;;;;16.40;97.30;;;;;;4986347;28;19914;-69
2022/10/28 03:04:23;;;;;;;;;;;16.30;97.30;;;;;;4986261;28;19949;-69
2022/10/28 03:06:48;;;;;;;;;;;16.30;97.30;;;;;;4986147;28;19961;-69
2022/10/28 03:09:13;;;;;;;;;;;16.40;97.20;;;;;;4986181;28;19930;-69
2022/10/28 03:11:39;;;;;;;;;;;16.40;97.40;;;;;;4986138;28;19921;-69
2022/10/28 03:14:04;;;;;;;;;;;16.30;97.30;;;;;;4985388;28;20314;-69
2022/10/28 03:16:30;;;;;;;;;;;16.40;97.30;;;;;;4985815;28;20540;-69
2022/10/28 03:18:55;;;;;;;;;;;16.30;97.20;;;;;;4985928;28;19913;-69
2022/10/28 03:21:21;;;;;;;;;;;16.30;97.20;;;;;;4985941;28;19920;-69
2022/10/28 03:23:46;;;;;;;;;;;16.30;97.20;;;;;;4986217;28;19968;-69
2022/10/28 03:26:12;;;;;;;;;;;16.30;97.20;;;;;;4985988;28;20315;-69
2022/10/28 03:28:37;;;;;;;;;;;16.30;97.30;;;;;;4986037;28;19992;-69
2022/10/28 03:31:03;;;;;;;;;;;16.20;97.20;;;;;;4985380;28;19940;-69
2022/10/28 03:33:29;;;;;;;;;;;16.30;97.30;;;;;;4985749;28;19921;-69
2022/10/28 03:35:54;;;;;;;;;;;16.20;97.30;;;;;;4984260;28;19921;-69
2022/10/28 03:38:20;;;;;;;;;;;16.20;97.30;;;;;;5000752;28;19914;-69
2022/10/28 03:40:48;;;;;;;;;;;16.20;97.30;;;;;;5001034;28;19948;-69
2022/10/28 03:43:14;;;;;;;;;;;16.20;97.30;;;;;;5005363;28;20438;-69
2022/10/28 03:45:39;;;;;;;;;;;16.20;97.30;;;;;;5004915;28;20086;-69
2022/10/28 03:48:05;;;;;;;;;;;16.20;97.20;;;;;;4991463;28;20041;-69
2022/10/28 03:50:30;;;;;;;;;;;16.20;97.30;;;;;;4985220;28;20447;-69
2022/10/28 03:52:56;;;;;;;;;;;16.20;97.30;;;;;;4985898;28;19914;-69
2022/10/28 03:55:22;;;;;;;;;;;16.20;97.30;;;;;;4985418;28;19956;-69
2022/10/28 03:57:48;;;;;;;;;;;16.20;97.40;;;;;;4985731;28;19997;-69
2022/10/28 04:00:15;;;;;;;;;;;16.20;97.30;;;;;;4984939;28;20726;-69
2022/10/28 04:02:40;;;;;;;;;;;16.20;97.40;;;;;;4985573;28;19914;-69
2022/10/28 04:05:06;;;;;;;;;;;16.20;97.30;;;;;;4985364;28;19945;-69
2022/10/28 04:07:31;;;;;;;;;;;16.10;97.20;;;;;;4985640;28;19917;-69
2022/10/28 04:09:57;;;;;;;;;;;16.20;97.30;;;;;;4985317;28;19932;-69
2022/10/28 04:12:22;;;;;;;;;;;16.10;97.30;;;;;;4985565;28;19921;-69
2022/10/28 04:14:48;;;;;;;;;;;16.10;97.30;;;;;;4985485;28;20430;-70
2022/10/28 04:17:14;;;;;;;;;;;16.10;97.30;;;;;;4985630;28;19917;-69
2022/10/28 04:19:40;;;;;;;;;;;16.10;97.40;;;;;;4985100;28;19979;-69
2022/10/28 04:22:05;;;;;;;;;;;16.00;97.30;;;;;;4985157;28;19918;-69
2022/10/28 04:24:31;;;;;;;;;;;16.10;97.40;;;;;;4985526;28;19921;-69
2022/10/28 04:26:56;;;;;;;;;;;16.00;97.40;;;;;;4985308;28;19914;-69
2022/10/28 04:29:22;;;;;;;;;;;16.00;97.70;;;;;;4984741;28;20049;-69
2022/10/28 04:31:47;;;;;;;;;;;16.00;97.40;;;;;;4985423;28;19953;-69
2022/10/28 04:34:13;;;;;;;;;;;16.00;97.40;;;;;;4985331;28;19922;-69
2022/10/28 04:36:38;;;;;;;;;;;16.00;97.30;;;;;;4985082;28;19914;-69
2022/10/28 04:39:04;;;;;;;;;;;16.00;97.40;;;;;;4985247;28;19917;-69
2022/10/28 04:41:29;;;;;;;;;;;15.90;97.40;;;;;;4981330;28;20416;-69
2022/10/28 04:43:55;;;;;;;;;;;16.00;97.40;;;;;;4985170;28;19921;-69
2022/10/28 04:46:21;;;;;;;;;;;15.90;97.40;;;;;;4985133;28;20661;-69
2022/10/28 04:48:46;;;;;;;;;;;16.00;97.40;;;;;;4985130;28;20418;-69
2022/10/28 04:51:12;;;;;;;;;;;16.00;97.40;;;;;;4987657;28;19976;-69
2022/10/28 04:53:38;;;;;;;;;;;16.00;97.40;;;;;;4988712;28;20804;-69
2022/10/28 04:56:03;;;;;;;;;;;16.00;97.30;;;;;;4988674;28;19961;-69
2022/10/28 04:58:29;;;;;;;;;;;16.00;97.30;;;;;;4988536;28;19914;-69
2022/10/28 05:00:54;;;;;;;;;;;16.00;97.40;;;;;;4988237;28;19921;-69
2022/10/28 05:03:20;;;;;;;;;;;16.00;97.30;;;;;;4988979;28;20001;-69
2022/10/28 05:05:46;;;;;;;;;;;15.90;97.20;;;;;;4989116;28;19910;-69
2022/10/28 05:08:11;;;;;;;;;;;15.90;97.30;;;;;;4988924;28;20020;-69
2022/10/28 05:10:37;;;;;;;;;;;15.90;97.30;;;;;;4987801;28;20015;-69
2022/10/28 05:13:02;;;;;;;;;;;15.90;97.20;;;;;;4987928;28;20409;-69
2022/10/28 05:15:30;;;;;;;;;;;15.90;97.30;;;;;;4988283;28;19914;-69
2022/10/28 05:17:57;;;;;;;;;;;16.00;97.30;;;;;;4986441;28;20287;-69
2022/10/28 05:20:22;;;;;;;;;;;16.00;97.30;;;;;;4988324;28;21101;-69
2022/10/28 05:22:49;;;;;;;;;;;15.90;97.30;;;;;;4988280;28;19918;-69
2022/10/28 05:25:15;;;;;;;;;;;15.90;97.30;;;;;;4988278;28;19914;-69
2022/10/28 05:27:41;;;;;;;;;;;16.00;97.40;;;;;;4987805;28;20467;-69
2022/10/28 05:30:07;;;;;;;;;;;15.90;97.20;;;;;;4988325;28;19917;-68
2022/10/28 05:32:33;;;;;;;;;;;15.90;97.30;;;;;;4988236;28;19914;-68
2022/10/28 05:34:58;;;;;;;;;;;15.90;97.30;;;;;;4987919;28;19953;-68
2022/10/28 05:37:24;;;;;;;;;;;15.90;97.20;;;;;;4987931;28;20546;-69
2022/10/28 05:39:49;;;;;;;;;;;16.00;97.30;;;;;;4987858;28;19967;-68
2022/10/28 05:42:15;;;;;;;;;;;16.00;97.20;;;;;;4988096;28;20474;-68
2022/10/28 05:44:40;;;;;;;;;;;15.90;97.30;;;;;;4987903;28;19921;-68
2022/10/28 05:47:06;;;;;;;;;;;15.90;97.30;;;;;;4987999;28;19922;-69
2022/10/28 05:49:31;;;;;;;;;;;16.00;97.20;;;;;;4987684;28;19920;-68
2022/10/28 05:51:57;;;;;;;;;;;15.90;97.30;;;;;;4987749;28;19921;-69
2022/10/28 05:54:22;;;;;;;;;;;15.90;97.30;;;;;;4987565;28;19976;-69
2022/10/28 05:56:48;;;;;;;;;;;16.00;97.30;;;;;;4987689;28;19921;-68
2022/10/28 05:59:13;;;;;;;;;;;15.90;97.30;;;;;;4987965;28;19921;-68
2022/10/28 06:01:38;;;;;;;;;;;15.90;97.30;;;;;;4986704;28;20001;-68
2022/10/28 06:04:05;;;;;;;;;;;16.00;97.30;;;;;;4987825;28;19917;-68
2022/10/28 06:06:31;;;;;;;;;;;16.00;97.30;;;;;;4987460;28;19944;-68
2022/10/28 06:08:56;;;;;;;;;;;15.90;97.30;;;;;;4987502;28;20318;-68
2022/10/28 06:11:22;;;;;;;;;;;16.00;97.30;;;;;;4987288;28;19917;-68
2022/10/28 06:13:47;;;;;;;;;;;15.90;97.20;;;;;;4987438;28;20382;-69
2022/10/28 06:16:12;;;;;;;;;;;15.90;97.20;;;;;;4987451;28;19918;-68
2022/10/28 06:18:38;;;;;;;;;;;15.90;97.20;;;;;;4987011;28;19988;-68
2022/10/28 06:21:04;;;;;;;;;;;15.90;97.30;;;;;;4987009;28;19914;-69
2022/10/28 06:23:29;;;;;;;;;;;15.90;97.20;;;;;;4987846;28;19920;-69
2022/10/28 06:25:55;;;;;;;;;;;15.90;97.30;;;;;;4988428;28;20479;-69
2022/10/28 06:28:21;;;;;;;;;;;15.90;97.30;;;;;;4986472;28;20370;-68
2022/10/28 06:30:46;;;;;;;;;;;15.90;97.30;;;;;;4986840;28;19976;-68
2022/10/28 06:33:12;;;;;;;;;;;15.90;97.30;;;;;;4987251;28;19914;-68
2022/10/28 06:35:37;;;;;;;;;;;15.90;97.30;;;;;;4986815;28;19972;-68
2022/10/28 06:38:03;;;;;;;;;;;15.90;97.20;;;;;;4986881;28;19973;-68
2022/10/28 06:40:28;;;;;;;;;;;15.90;97.20;;;;;;4986952;28;19933;-68
2022/10/28 06:42:57;;;;;;;;;;;15.90;97.30;;;;;;4985370;28;19914;-68
2022/10/28 06:45:23;;;;;;;;;;;15.90;97.20;;;;;;4988280;28;20017;-68
2022/10/28 06:47:48;;;;;;;;;;;15.90;97.30;;;;;;4987062;28;19973;-68
2022/10/28 06:50:14;;;;;;;;;;;15.90;97.30;;;;;;4986411;28;19917;-68
2022/10/28 06:52:39;;;;;;;;;;;15.90;97.30;;;;;;4986682;28;20358;-69
2022/10/28 06:55:05;;;;;;;;;;;15.90;97.30;;;;;;4987493;28;19914;-68
2022/10/28 06:57:31;;;;;;;;;;;15.90;97.30;;;;;;4987244;28;20338;-68
2022/10/28 06:59:56;;;;;;;;;;;15.90;97.30;;;;;;4987418;28;19914;-68
2022/10/28 07:02:21;;;;;;;;;;;15.90;97.30;;;;;;4987011;28;20259;-68
2022/10/28 07:04:47;;;;;;;;;;;15.90;97.20;;;;;;4986522;28;20456;-68
2022/10/28 07:07:12;;;;;;;;;;;15.90;97.20;;;;;;4986201;28;20040;-68
2022/10/28 07:09:38;;;;;;;;;;;15.90;97.30;;;;;;4985999;28;19986;-68
2022/10/28 07:12:05;;;;;;;;;;;15.90;97.30;;;;;;4986214;28;19914;-69
2022/10/28 07:14:30;;;;;;;;;;;15.90;97.20;;;;;;4985673;28;19924;-68
2022/10/28 07:16:56;;;;;;;;;;;15.90;97.30;;;;;;4986459;28;19913;-69
2022/10/28 07:19:21;;;;;;;;;;;16.00;97.30;;;;;;4986179;28;20000;-68
2022/10/28 07:21:47;;;;;;;;;;;16.00;97.30;;;;;;4986352;28;19918;-68
2022/10/28 07:24:12;;;;;;;;;;;15.90;97.20;;;;;;4986035;28;19928;-69
2022/10/28 07:26:38;;;;;;;;;;;16.00;97.20;;;;;;4986106;28;20032;-68
2022/10/28 07:29:03;;;;;;;;;;;16.00;97.30;;;;;;4985929;28;19917;-70
2022/10/28 07:31:30;;;;;;;;;;;16.00;97.20;;;;;;4985699;28;20355;-68
2022/10/28 07:33:55;;;;;;;;;;;16.10;97.20;;;;;;4986571;28;19915;-68
2022/10/28 07:36:21;;;;;;;;;;;16.10;97.20;;;;;;4986237;28;19921;-69
2022/10/28 07:38:47;;;;;;;;;;;16.10;97.20;;;;;;4985738;28;20626;-68
2022/10/28 07:41:13;;;;;;;;;;;16.10;97.20;;;;;;4985316;28;19918;-68
2022/10/28 07:43:38;;;;;;;;;;;16.10;97.20;;;;;;4985730;28;19921;-68
2022/10/28 07:46:05;;;;;;;;;;;16.10;97.20;;;;;;4986319;28;20415;-68
2022/10/28 07:48:31;;;;;;;;;;;16.20;97.10;;;;;;4986483;28;19944;-68
2022/10/28 07:50:59;;;;;;;;;;;16.20;97.10;;;;;;4986494;28;19968;-68
2022/10/28 07:53:24;;;;;;;;;;;16.20;97.10;;;;;;4986474;28;19968;-68
2022/10/28 07:55:54;;;;;;;;;;;16.20;97.10;;;;;;4985388;28;19917;-68
2022/10/28 07:58:19;;;;;;;;;;;16.20;97.10;;;;;;4985131;28;19972;-68
2022/10/28 08:00:45;;;;;;;;;;;16.30;97.00;;;;;;4985569;28;19914;-68
2022/10/28 08:03:10;;;;;;;;;;;16.30;97.10;;;;;;4985883;28;19944;-68
2022/10/28 08:05:36;;;;;;;;;;;16.30;97.10;;;;;;4985853;28;20275;-68
2022/10/28 08:08:01;;;;;;;;;;;16.30;97.10;;;;;;4985389;28;19925;-68
2022/10/28 08:10:27;;;;;;;;;;;16.30;97.00;;;;;;4985446;28;19921;-68
2022/10/28 08:12:54;;;;;;;;;;;16.30;97.00;;;;;;4985619;28;19972;-68
2022/10/28 08:15:22;;;;;;;;;;;16.30;97.10;;;;;;4985284;28;20527;-68
2022/10/28 08:17:51;;;;;;;;;;;16.40;97.10;;;;;;4984379;28;19913;-68
2022/10/28 08:20:16;;;;;;;;;;;16.40;97.10;;;;;;4984633;28;20350;-69
2022/10/28 08:22:42;;;;;;;;;;;16.40;97.30;;;;;;4984862;28;20028;-68
2022/10/28 08:25:08;;;;;;;;;;;16.40;97.00;;;;;;4987906;28;19914;-68
2022/10/28 08:27:33;;;;;;;;;;;16.40;97.10;;;;;;4989189;28;19921;-68
2022/10/28 08:29:59;;;;;;;;;;;16.40;97.00;;;;;;4987903;28;19921;-68
2022/10/28 08:32:24;;;;;;;;;;;16.50;97.10;;;;;;4987733;28;19972;-68
2022/10/28 08:34:50;;;;;;;;;;;16.50;97.10;;;;;;4987875;28;20548;-68
2022/10/28 08:37:15;;;;;;;;;;;16.50;97.10;;;;;;4988057;28;19921;-69
2022/10/28 08:39:41;;;;;;;;;;;16.50;97.10;;;;;;4988070;28;19914;-68
2022/10/28 08:42:15;;;;;;;;;;;16.50;97.10;;;;;;4989321;28;19933;-69
2022/10/28 08:44:46;;;;;;;;;;;16.50;97.10;;;;;;4989959;28;19914;-69
2022/10/28 08:47:19;;;;;;;;;;;16.50;97.30;;;;;;4969986;28;20488;-68
2022/10/28 08:49:47;;;;;;;;;;;16.50;97.10;;;;;;4985900;28;20463;-70
2022/10/28 08:52:15;;;;;;;;;;;16.50;97.10;;;;;;4989247;28;20530;-69
2022/10/28 08:54:41;;;;;;;;;;;16.60;97.10;;;;;;4989670;28;19925;-68
2022/10/28 08:57:17;;;;;;;;;;;16.60;97.10;;;;;;4989871;28;19909;-69
2022/10/28 08:59:43;;;;;;;;;;;16.60;97.10;;;;;;4988737;28;19917;-68
2022/10/28 09:02:14;;;;;;;;;;;16.60;97.20;;;;;;4988865;28;19925;-69
2022/10/28 09:04:41;;;;;;;;;;;16.60;97.10;;;;;;4989083;28;19918;-68
2022/10/28 09:07:17;;;;;;;;;;;16.60;97.10;;;;;;4987873;28;20615;-68
2022/10/28 09:09:47;;;;;;;;;;;16.60;97.00;;;;;;4988382;28;19922;-68
2022/10/28 09:12:31;;;;;;;;;;;16.60;97.00;;;;;;4988929;28;19925;-68
2022/10/28 09:14:56;;;;;;;;;;;16.60;97.10;;;;;;4988383;28;19914;-68
2022/10/28 09:17:48;;;;;;;;;;;16.70;96.90;;;;;;4988759;28;19914;-68
2022/10/28 09:20:18;;;;;;;;;;;16.70;96.90;;;;;;4981989;28;19960;-68
2022/10/28 09:22:51;;;;;;;;;;;16.70;96.90;;;;;;4988604;28;20386;-68
2022/10/28 09:25:26;;;;;;;;;;;16.70;96.90;;;;;;4988695;28;19913;-68
2022/10/28 09:27:54;;;;;;;;;;;16.70;96.90;;;;;;4988494;28;19988;-68
2022/10/28 09:30:40;;;;;;;;;;;16.80;96.90;;;;;;4974986;28;19914;-69
2022/10/28 09:33:05;;;;;;;;;;;16.80;96.70;;;;;;4988541;28;19909;-68
2022/10/28 09:35:32;;;;;;;;;;;16.90;96.80;;;;;;4987210;28;19925;-68
2022/10/28 09:38:01;;;;;;;;;;;16.90;96.70;;;;;;4988301;28;19944;-68
2022/10/28 09:40:29;;;;;;;;;;;16.90;96.60;;;;;;4988196;28;19914;-68
2022/10/28 09:43:05;;;;;;;;;;;17.00;96.50;;;;;;4987495;28;19913;-68
2022/10/28 09:45:34;;;;;;;;;;;17.00;96.50;;;;;;4987491;28;20614;-69
2022/10/28 09:48:21;;;;;;;;;;;17.00;96.40;;;;;;4987060;28;19918;-68
2022/10/28 09:50:48;;;;;;;;;;;17.10;96.40;;;;;;4984881;28;19918;-68
2022/10/28 09:53:34;;;;;;;;;;;17.20;96.40;;;;;;4987638;28;19918;-69
2022/10/28 09:56:01;;;;;;;;;;;17.20;96.20;;;;;;4987091;28;20322;-68
2022/10/28 09:58:26;;;;;;;;;;;17.20;96.20;;;;;;4996332;28;20010;-68
2022/10/28 10:00:52;;;;;;;;;;;17.20;96.20;;;;;;4996239;28;20421;-69
2022/10/28 10:03:17;;;;;;;;;;;17.30;96.10;;;;;;4987569;28;19921;-69
2022/10/28 10:05:45;;;;;;;;;;;17.30;96.10;;;;;;4987698;28;19924;-68
2022/10/28 10:08:13;;;;;;;;;;;17.40;96.10;;;;;;4986946;28;20016;-68
2022/10/28 10:10:44;;;;;;;;;;;17.40;96.20;;;;;;4987197;28;19945;-68
2022/10/28 10:13:10;;;;;;;;;;;17.40;96.00;;;;;;4986937;28;20361;-68
2022/10/28 10:15:37;;;;;;;;;;;17.40;96.10;;;;;;4987339;28;19914;-68
2022/10/28 10:18:04;;;;;;;;;;;17.50;96.10;;;;;;4987332;28;20013;-69
2022/10/28 10:20:45;;;;;;;;;;;17.50;96.20;;;;;;4985330;28;19972;-68
2022/10/28 10:23:20;;;;;;;;;;;17.50;96.10;;;;;;4987490;28;20367;-68
2022/10/28 10:25:52;;;;;;;;;;;17.60;96.00;;;;;;4987355;28;20545;-68
2022/10/28 10:28:17;;;;;;;;;;;17.70;96.10;;;;;;4987506;28;20012;-69
2022/10/28 10:30:53;;;;;;;;;;;17.70;95.90;;;;;;4987525;28;19924;-68
2022/10/28 10:33:27;;;;;;;;;;;17.70;96.00;;;;;;4987546;28;19910;-68
2022/10/28 10:35:55;;;;;;;;;;;17.70;95.80;;;;;;4986082;28;19925;-68
2022/10/28 10:38:20;;;;;;;;;;;17.80;95.90;;;;;;4986682;28;19914;-68
2022/10/28 10:40:48;;;;;;;;;;;17.80;95.80;;;;;;4986968;28;19941;-69
2022/10/28 10:43:16;;;;;;;;;;;17.90;95.90;;;;;;4986696;28;19917;-69
2022/10/28 10:46:11;;;;;;;;;;;17.90;95.90;;;;;;4986655;28;19965;-69
2022/10/28 10:48:37;;;;;;;;;;;17.90;95.80;;;;;;4976535;28;19926;-69
2022/10/28 10:51:06;;;;;;;;;;;18.00;95.90;;;;;;4986129;28;20279;-69
2022/10/28 10:53:32;;;;;;;;;;;18.00;95.80;;;;;;4986912;28;19913;-68
2022/10/28 10:56:02;;;;;;;;;;;18.10;95.60;;;;;;4981360;28;19922;-68
2022/10/28 10:58:32;;;;;;;;;;;18.10;95.70;;;;;;4972862;28;19921;-69
2022/10/28 11:00:59;;;;;;;;;;;18.10;95.60;;;;;;5000628;28;19963;-68
2022/10/28 11:03:28;;;;;;;;;;;18.20;95.60;;;;;;4986556;28;19953;-69
2022/10/28 11:05:55;;;;;;;;;;;18.20;95.60;;;;;;4986405;28;19918;-69
2022/10/28 11:08:31;;;;;;;;;;;18.30;95.70;;;;;;4987013;28;19913;-68
2022/10/28 11:11:05;;;;;;;;;;;18.30;95.80;;;;;;4986790;28;19921;-68
2022/10/28 11:13:32;;;;;;;;;;;18.30;95.60;;;;;;4987197;28;19979;-69
2022/10/28 11:15:59;;;;;;;;;;;18.40;95.60;;;;;;4986919;28;20020;-68
2022/10/28 11:18:24;;;;;;;;;;;18.40;95.40;;;;;;4986135;28;19949;-69
2022/10/28 11:20:56;;;;;;;;;;;18.50;95.50;;;;;;4986458;28;19960;-69
2022/10/28 11:23:30;;;;;;;;;;;18.60;95.40;;;;;;4986401;28;19956;-69
2022/10/28 11:26:00;;;;;;;;;;;18.60;95.40;;;;;;4986804;28;20389;-69
2022/10/28 11:28:37;;;;;;;;;;;18.70;95.50;;;;;;4986792;28;19913;-68
2022/10/28 11:31:15;;;;;;;;;;;18.70;95.40;;;;;;4986413;28;19910;-68
2022/10/28 11:33:46;;;;;;;;;;;18.80;95.20;;;;;;4986327;28;19918;-68
2022/10/28 11:36:30;;;;;;;;;;;18.80;95.30;;;;;;4985029;28;20475;-69
2022/10/28 11:39:18;;;;;;;;;;;18.90;95.20;;;;;;4986281;28;20578;-68
2022/10/28 11:41:53;;;;;;;;;;;19.00;95.20;;;;;;4984470;28;19918;-69
2022/10/28 11:44:24;;;;;;;;;;;19.00;95.30;;;;;;4985589;28;19926;-69
2022/10/28 11:47:06;;;;;;;;;;;19.10;95.30;;;;;;4985396;28;20469;-69
2022/10/28 11:49:37;;;;;;;;;;;19.10;95.10;;;;;;4985544;28;20377;-69
2022/10/28 11:52:05;;;;;;;;;;;19.10;95.10;;;;;;4985199;28;19917;-68
2022/10/28 11:54:49;;;;;;;;;;;19.20;95.30;;;;;;4985825;28;20521;-68
2022/10/28 11:57:23;;;;;;;;;;;19.20;95.20;;;;;;4985589;28;19914;-69
2022/10/28 11:59:52;;;;;;;;;;;19.30;95.30;;;;;;4984919;28;19917;-69
2022/10/28 12:02:30;;;;;;;;;;;19.30;95.20;;;;;;4985893;28;19921;-69
2022/10/28 12:05:02;;;;;;;;;;;19.30;95.30;;;;;;4985242;28;20423;-69
2022/10/28 12:07:31;;;;;;;;;;;19.40;95.20;;;;;;4985150;28;19953;-69
2022/10/28 12:10:05;;;;;;;;;;;19.40;95.20;;;;;;4984405;28;19922;-69
2022/10/28 12:12:39;;;;;;;;;;;19.40;95.30;;;;;;4985353;28;19914;-69
2022/10/28 12:15:23;;;;;;;;;;;19.50;95.30;;;;;;4985317;28;19941;-69
2022/10/28 12:17:55;;;;;;;;;;;19.50;95.10;;;;;;4985360;28;19922;-69
2022/10/28 12:20:32;;;;;;;;;;;19.60;95.10;;;;;;4984844;28;19918;-69
2022/10/28 12:23:00;;;;;;;;;;;19.60;95.20;;;;;;4985225;28;19952;-69
2022/10/28 12:25:32;;;;;;;;;;;19.70;95.20;;;;;;4984638;28;20056;-69
2022/10/28 12:27:59;;;;;;;;;;;19.70;95.20;;;;;;4980437;28;20330;-69
2022/10/28 12:30:29;;;;;;;;;;;19.70;95.20;;;;;;4998441;28;19925;-70
2022/10/28 12:33:00;;;;;;;;;;;19.80;95.20;;;;;;4984801;28;19918;-69
2022/10/28 12:35:33;;;;;;;;;;;19.80;95.10;;;;;;4985498;28;19909;-68
2022/10/28 12:38:25;;;;;;;;;;;19.90;95.10;;;;;;4985084;28;19980;-69
2022/10/28 12:40:58;;;;;;;;;;;19.90;95.00;;;;;;4984089;28;19913;-69
2022/10/28 12:43:28;;;;;;;;;;;19.90;95.00;;;;;;4985491;28;20348;-68
2022/10/28 12:45:55;;;;;;;;;;;19.90;95.00;;;;;;4985118;28;19925;-68
2022/10/28 12:48:23;;;;;;;;;;;20.00;94.90;;;;;;4985211;28;20601;-69
2022/10/28 12:50:51;;;;;;;;;;;20.00;94.90;;;;;;4985032;28;19922;-69
2022/10/28 12:53:20;;;;;;;;;;;20.00;95.10;;;;;;4985204;28;19914;-69
2022/10/28 12:55:48;;;;;;;;;;;20.00;95.10;;;;;;4984769;28;19921;-69
2022/10/28 12:58:18;;;;;;;;;;;20.00;95.10;;;;;;4984660;28;20048;-69
2022/10/28 13:00:55;;;;;;;;;;;20.00;95.10;;;;;;4981673;28;20028;-68
2022/10/28 13:03:20;;;;;;;;;;;20.10;95.20;;;;;;4984980;28;19914;-68
2022/10/28 13:06:06;;;;;;;;;;;20.10;95.20;;;;;;4985236;28;19944;-69
2022/10/28 13:08:41;;;;;;;;;;;20.10;95.00;;;;;;4983534;28;19918;-69
2022/10/28 13:11:18;;;;;;;;;;;20.10;94.90;;;;;;4984607;28;19948;-68
2022/10/28 13:14:02;;;;;;;;;;;20.20;95.10;;;;;;4987587;28;19929;-69
2022/10/28 13:16:28;;;;;;;;;;;20.20;95.00;;;;;;4988094;28;20553;-69
2022/10/28 13:18:53;;;;;;;;;;;20.10;95.20;;;;;;4988331;28;20013;-69
2022/10/28 13:21:23;;;;;;;;;;;20.20;95.20;;;;;;4987949;28;20721;-68
2022/10/28 13:23:49;;;;;;;;;;;20.20;95.30;;;;;;4988792;28;19976;-68
2022/10/28 13:26:20;;;;;;;;;;;20.20;95.10;;;;;;4988225;28;20004;-68
2022/10/28 13:28:47;;;;;;;;;;;20.20;95.30;;;;;;4987797;28;19914;-69
2022/10/28 13:31:14;;;;;;;;;;;20.20;95.10;;;;;;4987351;28;20656;-69
2022/10/28 13:33:45;;;;;;;;;;;20.20;95.20;;;;;;4988087;28;19968;-71
2022/10/28 13:36:17;;;;;;;;;;;20.20;95.10;;;;;;4988361;28;19917;-68
2022/10/28 13:38:47;;;;;;;;;;;20.30;95.00;;;;;;4988177;28;20540;-68
2022/10/28 13:41:25;;;;;;;;;;;20.30;94.90;;;;;;4987695;28;19913;-69
2022/10/28 13:43:50;;;;;;;;;;;20.30;95.10;;;;;;4987982;28;19914;-69
2022/10/28 13:46:35;;;;;;;;;;;20.30;95.00;;;;;;4987139;28;19924;-68
2022/10/28 13:49:19;;;;;;;;;;;20.30;95.00;;;;;;4987976;28;19918;-69
2022/10/28 13:51:45;;;;;;;;;;;20.30;95.00;;;;;;4967493;28;19914;-67
2022/10/28 13:54:22;;;;;;;;;;;20.30;95.00;;;;;;4967380;28;19910;-68
2022/10/28 13:56:48;;;;;;;;;;;20.30;95.00;;;;;;4968958;28;20351;-70
2022/10/28 13:59:14;;;;;;;;;;;20.30;94.50;;;;;;4979821;28;19917;-69
2022/10/28 14:01:42;;;;;;;;;;;20.40;93.70;;;;;;4987253;28;19914;-70
2022/10/28 14:04:21;;;;;;;;;;;20.50;93.00;;;;;;4987860;28;20256;-70
2022/10/28 14:06:47;;;;;;;;;;;20.60;92.10;;;;;;4987413;28;20378;-70
2022/10/28 14:09:26;;;;;;;;;;;20.70;91.60;;;;;;4986902;28;19918;-71
2022/10/28 14:12:10;;;;;;;;;;;20.70;91.10;;;;;;4987575;28;20021;-69
2022/10/28 14:14:35;;;;;;;;;;;20.70;91.00;;;;;;4986999;28;19914;-70
2022/10/28 14:17:02;;;;;;;;;;;20.70;90.90;;;;;;4987730;28;19976;-71
2022/10/28 14:19:27;;;;;;;;;;;20.80;90.70;;;;;;4987403;28;20543;-71
2022/10/28 14:22:06;;;;;;;;;;;20.70;90.50;;;;;;4987653;28;19925;-71
2022/10/28 14:24:31;;;;;;;;;;;20.70;90.60;;;;;;4987673;28;19914;-69
2022/10/28 14:27:06;;;;;;;;;;;20.70;90.60;;;;;;4987540;28;20266;-71